sensor_id;sensor_type;location;lat;lon;timestamp;noise_LAeq;noise_LA_min;noise_LA_max;noise_LA01;noise_LA95
79288;Laerm;68737;53.946;27.634;2023-04-25T00:01:31;41.487823;38.642860;45.935349;;
79288;Laerm;68737;53.946;27.634;2023-04-25T00:04:00;44.002113;38.025665;57.284988;;
79288;Laerm;68737;53.946;27.634;2023-04-25T00:06:31;43.111893;37.364845;55.138603;;
79288;Laerm;68737;53.946;27.634;2023-04-25T00:09:00;40.524895;37.425667;52.316849;;
79288;Laerm;68737;53.946;27.634;2023-04-25T00:11:30;42.023483;38.553696;52.684006;;
79288;Laerm;68737;53.946;27.634;2023-04-25T00:14:00;45.778702;39.808418;59.415520;;
79288;Laerm;68737;53.946;27.634;2023-04-25T00:16:30;43.697235;39.248116;53.620331;;
79288;Laerm;68737;53.946;27.634;2023-04-25T00:19:01;47.956757;39.768944;58.206757;;
79288;Laerm;68737;53.946;27.634;2023-04-25T00:21:30;41.560684;38.952866;55.424294;;
79288;Laerm;68737;53.946;27.634;2023-04-25T00:24:01;41.556648;38.818573;55.460564;;
79288;Laerm;68737;53.946;27.634;2023-04-25T00:26:30;41.594009;38.884537;46.845940;;
79288;Laerm;68737;53.946;27.634;2023-04-25T00:29:01;41.863388;39.334297;46.606995;;
79288;Laerm;68737;53.946;27.634;2023-04-25T00:31:30;41.559738;38.796646;44.579506;;
79288;Laerm;68737;53.946;27.634;2023-04-25T00:34:01;41.542259;38.588425;46.398354;;
79288;Laerm;68737;53.946;27.634;2023-04-25T00:36:30;43.768341;38.707108;66.065689;;
79288;Laerm;68737;53.946;27.634;2023-04-25T00:39:00;41.521034;37.719566;48.277039;;
79288;Laerm;68737;53.946;27.634;2023-04-25T00:41:30;43.618973;37.980232;56.394379;;
79288;Laerm;68737;53.946;27.634;2023-04-25T00:44:00;42.475777;38.479301;54.011139;;
79288;Laerm;68737;53.946;27.634;2023-04-25T00:46:30;40.500374;37.489914;52.019524;;
79288;Laerm;68737;53.946;27.634;2023-04-25T00:49:00;39.953079;37.598328;48.980705;;
79288;Laerm;68737;53.946;27.634;2023-04-25T00:51:30;47.906876;38.250153;64.186211;;
79288;Laerm;68737;53.946;27.634;2023-04-25T00:54:00;45.515396;37.709976;60.905422;;
79288;Laerm;68737;53.946;27.634;2023-04-25T00:56:30;43.060471;38.511444;53.495888;;
79288;Laerm;68737;53.946;27.634;2023-04-25T00:59:00;41.599922;38.437653;47.168785;;
79288;Laerm;68737;53.946;27.634;2023-04-25T01:01:30;42.276833;38.725723;53.692276;;
79288;Laerm;68737;53.946;27.634;2023-04-25T01:04:00;41.870735;38.609917;45.734558;;
79288;Laerm;68737;53.946;27.634;2023-04-25T01:06:30;42.749931;38.101402;54.210907;;
79288;Laerm;68737;53.946;27.634;2023-04-25T01:09:00;44.237770;38.352791;57.502602;;
79288;Laerm;68737;53.946;27.634;2023-04-25T01:11:30;45.516472;39.499985;55.415642;;
79288;Laerm;68737;53.946;27.634;2023-04-25T01:14:00;44.593254;39.859962;54.074707;;
79288;Laerm;68737;53.946;27.634;2023-04-25T01:16:31;42.813820;39.164505;53.667572;;
79288;Laerm;68737;53.946;27.634;2023-04-25T01:19:00;43.849419;38.137642;54.164459;;
79288;Laerm;68737;53.946;27.634;2023-04-25T01:21:30;43.863182;39.155617;59.094658;;
79288;Laerm;68737;53.946;27.634;2023-04-25T01:24:00;42.875389;38.152718;52.944016;;
79288;Laerm;68737;53.946;27.634;2023-04-25T01:26:30;43.848320;39.082970;56.790764;;
79288;Laerm;68737;53.946;27.634;2023-04-25T01:29:00;43.615067;38.457199;51.086761;;
79288;Laerm;68737;53.946;27.634;2023-04-25T01:31:30;44.366310;39.334526;55.839172;;
79288;Laerm;68737;53.946;27.634;2023-04-25T01:34:00;48.069679;40.730087;59.761497;;
79288;Laerm;68737;53.946;27.634;2023-04-25T01:36:30;47.290291;43.621269;67.824875;;
79288;Laerm;68737;53.946;27.634;2023-04-25T01:39:00;47.123558;41.148499;63.823170;;
79288;Laerm;68737;53.946;27.634;2023-04-25T01:41:30;43.727264;39.173569;60.890057;;
79288;Laerm;68737;53.946;27.634;2023-04-25T01:44:00;44.091270;38.570259;54.794815;;
79288;Laerm;68737;53.946;27.634;2023-04-25T01:46:30;41.951553;39.236809;46.354042;;
79288;Laerm;68737;53.946;27.634;2023-04-25T01:49:01;41.825584;39.241974;46.980713;;
79288;Laerm;68737;53.946;27.634;2023-04-25T01:51:30;42.715080;39.337601;65.460434;;
79288;Laerm;68737;53.946;27.634;2023-04-25T01:54:01;43.801041;39.374313;52.866638;;
79288;Laerm;68737;53.946;27.634;2023-04-25T01:56:31;43.628555;40.712700;47.169861;;
79288;Laerm;68737;53.946;27.634;2023-04-25T01:59:00;51.644630;40.956024;81.532364;;
79288;Laerm;68737;53.946;27.634;2023-04-25T02:01:30;52.356651;40.429794;67.244659;;
79288;Laerm;68737;53.946;27.634;2023-04-25T02:04:00;44.016800;39.878937;52.973801;;
79288;Laerm;68737;53.946;27.634;2023-04-25T02:06:30;45.846260;40.218102;56.187637;;
79288;Laerm;68737;53.946;27.634;2023-04-25T02:09:00;47.251343;41.886238;56.913712;;
79288;Laerm;68737;53.946;27.634;2023-04-25T02:11:30;46.408356;41.545120;54.556122;;
79288;Laerm;68737;53.946;27.634;2023-04-25T02:14:00;45.291214;40.051750;61.134808;;
79288;Laerm;68737;53.946;27.634;2023-04-25T02:16:30;45.400467;39.949860;53.354958;;
79288;Laerm;68737;53.946;27.634;2023-04-25T02:19:00;46.417557;40.524353;56.235886;;
79288;Laerm;68737;53.946;27.634;2023-04-25T02:21:30;46.005493;40.772697;54.544266;;
79288;Laerm;68737;53.946;27.634;2023-04-25T02:24:00;46.880753;41.693100;59.687214;;
79288;Laerm;68737;53.946;27.634;2023-04-25T02:26:30;48.997498;40.993828;64.149765;;
79288;Laerm;68737;53.946;27.634;2023-04-25T02:29:00;47.839691;40.562683;60.509838;;
79288;Laerm;68737;53.946;27.634;2023-04-25T02:31:30;46.806618;40.009888;60.412842;;
79288;Laerm;68737;53.946;27.634;2023-04-25T02:34:00;46.824081;40.735573;60.043922;;
79288;Laerm;68737;53.946;27.634;2023-04-25T02:36:30;45.396286;41.042358;57.330429;;
79288;Laerm;68737;53.946;27.634;2023-04-25T02:39:00;48.543961;41.185829;62.755089;;
79288;Laerm;68737;53.946;27.634;2023-04-25T02:41:30;46.947998;40.758255;61.775059;;
79288;Laerm;68737;53.946;27.634;2023-04-25T02:44:00;49.382187;41.244522;62.341194;;
79288;Laerm;68737;53.946;27.634;2023-04-25T02:46:30;49.232498;41.677559;60.907162;;
79288;Laerm;68737;53.946;27.634;2023-04-25T02:49:00;47.661774;40.076355;62.704006;;
79288;Laerm;68737;53.946;27.634;2023-04-25T02:51:30;45.869286;41.193008;55.054390;;
79288;Laerm;68737;53.946;27.634;2023-04-25T02:54:00;45.180550;41.185310;55.381874;;
79288;Laerm;68737;53.946;27.634;2023-04-25T02:56:30;46.553055;41.565750;62.095676;;
79288;Laerm;68737;53.946;27.634;2023-04-25T02:59:00;47.991402;40.762123;58.857361;;
79288;Laerm;68737;53.946;27.634;2023-04-25T03:01:30;46.785873;40.579300;61.363518;;
79288;Laerm;68737;53.946;27.634;2023-04-25T03:04:00;47.467461;41.728943;64.622849;;
79288;Laerm;68737;53.946;27.634;2023-04-25T03:06:30;48.203331;42.244247;59.994244;;
79288;Laerm;68737;53.946;27.634;2023-04-25T03:09:00;48.328529;43.132301;59.433037;;
79288;Laerm;68737;53.946;27.634;2023-04-25T03:11:30;47.308197;43.153999;53.665092;;
79288;Laerm;68737;53.946;27.634;2023-04-25T03:14:00;47.776207;41.084961;60.475914;;
79288;Laerm;68737;53.946;27.634;2023-04-25T03:16:30;56.402267;44.583694;70.445412;;
79288;Laerm;68737;53.946;27.634;2023-04-25T03:19:00;50.096306;43.172539;72.443939;;
79288;Laerm;68737;53.946;27.634;2023-04-25T03:21:31;46.174751;41.793976;60.494289;;
79288;Laerm;68737;53.946;27.634;2023-04-25T03:24:01;52.025467;42.545471;66.637527;;
79288;Laerm;68737;53.946;27.634;2023-04-25T03:26:30;47.652451;42.725510;59.584450;;
79288;Laerm;68737;53.946;27.634;2023-04-25T03:29:00;49.417290;42.426704;62.936321;;
79288;Laerm;68737;53.946;27.634;2023-04-25T03:31:30;47.609123;42.029808;57.510040;;
79288;Laerm;68737;53.946;27.634;2023-04-25T03:34:00;46.693542;42.747253;57.099503;;
79288;Laerm;68737;53.946;27.634;2023-04-25T03:36:30;46.379822;43.102562;50.698708;;
79288;Laerm;68737;53.946;27.634;2023-04-25T03:39:00;48.610619;43.248383;59.407890;;
79288;Laerm;68737;53.946;27.634;2023-04-25T03:41:30;50.642464;42.786797;61.380295;;
79288;Laerm;68737;53.946;27.634;2023-04-25T03:44:00;50.627998;42.040382;62.451923;;
79288;Laerm;68737;53.946;27.634;2023-04-25T03:46:30;47.795082;42.291786;58.270561;;
79288;Laerm;68737;53.946;27.634;2023-04-25T03:49:00;50.751152;41.824539;71.669479;;
79288;Laerm;68737;53.946;27.634;2023-04-25T03:51:30;49.330963;42.223068;67.494049;;
79288;Laerm;68737;53.946;27.634;2023-04-25T03:54:00;48.949631;42.051979;62.112915;;
79288;Laerm;68737;53.946;27.634;2023-04-25T03:56:30;50.428276;43.543732;62.810749;;
79288;Laerm;68737;53.946;27.634;2023-04-25T03:59:00;50.384293;43.707191;73.626755;;
79288;Laerm;68737;53.946;27.634;2023-04-25T04:01:30;50.568542;43.173599;62.550491;;
79288;Laerm;68737;53.946;27.634;2023-04-25T04:04:00;50.057533;43.086746;59.082378;;
79288;Laerm;68737;53.946;27.634;2023-04-25T04:06:31;50.187408;43.512199;63.790070;;
79288;Laerm;68737;53.946;27.634;2023-04-25T04:09:00;49.867119;43.789680;63.801407;;
79288;Laerm;68737;53.946;27.634;2023-04-25T04:11:30;48.842514;43.844765;60.250183;;
79288;Laerm;68737;53.946;27.634;2023-04-25T04:14:00;48.746552;43.578621;62.145142;;
79288;Laerm;68737;53.946;27.634;2023-04-25T04:16:30;51.984253;44.241646;69.748840;;
79288;Laerm;68737;53.946;27.634;2023-04-25T04:19:00;48.331604;43.593513;57.202179;;
79288;Laerm;68737;53.946;27.634;2023-04-25T04:21:30;49.646385;43.235451;58.566078;;
79288;Laerm;68737;53.946;27.634;2023-04-25T04:24:00;49.416168;42.906845;57.237640;;
79288;Laerm;68737;53.946;27.634;2023-04-25T04:26:31;48.816185;43.762093;57.903152;;
79288;Laerm;68737;53.946;27.634;2023-04-25T04:29:00;49.525642;43.200134;58.921951;;
79288;Laerm;68737;53.946;27.634;2023-04-25T04:31:30;48.002281;43.618385;55.731003;;
79288;Laerm;68737;53.946;27.634;2023-04-25T04:34:00;50.862022;42.996948;60.981098;;
79288;Laerm;68737;53.946;27.634;2023-04-25T04:36:30;51.629555;44.107979;61.905209;;
79288;Laerm;68737;53.946;27.634;2023-04-25T04:39:00;49.476723;43.597374;62.284805;;
79288;Laerm;68737;53.946;27.634;2023-04-25T04:41:30;48.983246;42.169563;61.030815;;
79288;Laerm;68737;53.946;27.634;2023-04-25T04:44:00;51.401085;45.100342;59.668507;;
79288;Laerm;68737;53.946;27.634;2023-04-25T04:46:30;51.076103;42.659019;64.552017;;
79288;Laerm;68737;53.946;27.634;2023-04-25T04:49:00;50.636673;43.713104;62.225262;;
79288;Laerm;68737;53.946;27.634;2023-04-25T04:51:30;56.113533;44.629219;74.580437;;
79288;Laerm;68737;53.946;27.634;2023-04-25T04:54:00;52.986664;43.275925;66.414963;;
79288;Laerm;68737;53.946;27.634;2023-04-25T04:56:30;51.162117;42.750214;69.048935;;
79288;Laerm;68737;53.946;27.634;2023-04-25T04:59:00;51.224373;43.033112;63.780060;;
79288;Laerm;68737;53.946;27.634;2023-04-25T05:01:30;52.191467;43.461487;68.882416;;
79288;Laerm;68737;53.946;27.634;2023-04-25T05:04:00;51.295944;45.285172;63.110683;;
79288;Laerm;68737;53.946;27.634;2023-04-25T05:06:30;52.779892;44.988464;66.095627;;
79288;Laerm;68737;53.946;27.634;2023-04-25T05:09:00;49.757721;43.422768;60.194199;;
79288;Laerm;68737;53.946;27.634;2023-04-25T05:11:30;50.061783;42.395729;57.925148;;
79288;Laerm;68737;53.946;27.634;2023-04-25T05:14:00;49.709900;43.693939;62.730690;;
79288;Laerm;68737;53.946;27.634;2023-04-25T05:16:30;52.658653;42.653793;64.603348;;
79288;Laerm;68737;53.946;27.634;2023-04-25T05:19:00;49.345749;42.442184;62.609596;;
79288;Laerm;68737;53.946;27.634;2023-04-25T05:21:30;56.571564;42.824554;67.716148;;
79288;Laerm;68737;53.946;27.634;2023-04-25T05:24:00;49.951431;43.125076;72.661308;;
79288;Laerm;68737;53.946;27.634;2023-04-25T05:26:30;50.355820;43.584114;69.284966;;
79288;Laerm;68737;53.946;27.634;2023-04-25T05:29:00;51.228943;44.355988;60.516724;;
79288;Laerm;68737;53.946;27.634;2023-04-25T05:31:30;52.585724;43.120758;69.547882;;
79288;Laerm;68737;53.946;27.634;2023-04-25T05:34:00;49.017632;42.586838;57.479599;;
79288;Laerm;68737;53.946;27.634;2023-04-25T05:36:30;52.560959;43.242821;59.600365;;
79288;Laerm;68737;53.946;27.634;2023-04-25T05:39:00;50.713905;42.841263;65.257080;;
79288;Laerm;68737;53.946;27.634;2023-04-25T05:41:30;50.325867;42.520744;60.644173;;
79288;Laerm;68737;53.946;27.634;2023-04-25T05:44:00;50.340935;42.456192;58.755852;;
79288;Laerm;68737;53.946;27.634;2023-04-25T05:46:30;51.298416;42.615906;63.717567;;
79288;Laerm;68737;53.946;27.634;2023-04-25T05:49:00;51.960197;44.262375;62.473797;;
79288;Laerm;68737;53.946;27.634;2023-04-25T05:51:30;52.651825;43.275261;62.984077;;
79288;Laerm;68737;53.946;27.634;2023-04-25T05:54:00;53.626167;46.763084;62.040421;;
79288;Laerm;68737;53.946;27.634;2023-04-25T05:56:30;55.257446;47.949326;63.933872;;
79288;Laerm;68737;53.946;27.634;2023-04-25T05:59:00;54.199387;46.211365;63.515705;;
79288;Laerm;68737;53.946;27.634;2023-04-25T06:01:30;54.789413;46.343987;64.691109;;
79288;Laerm;68737;53.946;27.634;2023-04-25T06:04:00;49.789795;44.466003;59.068596;;
79288;Laerm;68737;53.946;27.634;2023-04-25T06:06:30;56.282349;43.156090;70.355316;;
79288;Laerm;68737;53.946;27.634;2023-04-25T06:09:00;51.531456;43.939438;64.287994;;
79288;Laerm;68737;53.946;27.634;2023-04-25T06:11:30;54.184273;45.606956;63.099476;;
79288;Laerm;68737;53.946;27.634;2023-04-25T06:14:00;51.524025;44.859955;62.315620;;
79288;Laerm;68737;53.946;27.634;2023-04-25T06:16:30;57.230118;49.109138;70.464973;;
79288;Laerm;68737;53.946;27.634;2023-04-25T06:19:00;57.181671;49.570770;74.307198;;
79288;Laerm;68737;53.946;27.634;2023-04-25T06:21:30;58.069656;49.080574;75.935638;;
79288;Laerm;68737;53.946;27.634;2023-04-25T06:24:00;59.146111;48.588882;80.136055;;
79288;Laerm;68737;53.946;27.634;2023-04-25T06:26:30;61.467979;50.343002;82.366096;;
79288;Laerm;68737;53.946;27.634;2023-04-25T06:29:00;58.689240;47.395073;80.828995;;
79288;Laerm;68737;53.946;27.634;2023-04-25T06:31:30;58.181992;47.860695;83.155777;;
79288;Laerm;68737;53.946;27.634;2023-04-25T06:34:00;57.038811;47.788269;82.619049;;
79288;Laerm;68737;53.946;27.634;2023-04-25T06:36:30;57.132675;47.766983;76.053360;;
79288;Laerm;68737;53.946;27.634;2023-04-25T06:39:00;57.346024;49.015816;82.293213;;
79288;Laerm;68737;53.946;27.634;2023-04-25T06:41:30;56.551949;49.234711;80.383942;;
79288;Laerm;68737;53.946;27.634;2023-04-25T06:44:00;54.524971;47.926109;65.045837;;
79288;Laerm;68737;53.946;27.634;2023-04-25T06:46:30;55.102226;48.973885;70.943161;;
79288;Laerm;68737;53.946;27.634;2023-04-25T06:49:00;56.118813;49.965027;73.564819;;
79288;Laerm;68737;53.946;27.634;2023-04-25T06:51:30;55.525017;48.996033;63.464470;;
79288;Laerm;68737;53.946;27.634;2023-04-25T06:54:00;55.822487;48.587105;63.449486;;
79288;Laerm;68737;53.946;27.634;2023-04-25T06:56:30;54.674049;49.342896;63.358864;;
79288;Laerm;68737;53.946;27.634;2023-04-25T06:59:00;54.865166;50.180054;62.835907;;
79288;Laerm;68737;53.946;27.634;2023-04-25T07:01:30;54.412315;48.942032;62.322212;;
79288;Laerm;68737;53.946;27.634;2023-04-25T07:04:00;55.711296;49.292389;62.552738;;
79288;Laerm;68737;53.946;27.634;2023-04-25T07:06:30;54.952934;50.070946;62.784458;;
79288;Laerm;68737;53.946;27.634;2023-04-25T07:09:00;56.124214;49.048576;65.761345;;
79288;Laerm;68737;53.946;27.634;2023-04-25T07:11:30;55.305885;50.126030;67.410919;;
79288;Laerm;68737;53.946;27.634;2023-04-25T07:14:00;54.958702;48.948540;62.415298;;
79288;Laerm;68737;53.946;27.634;2023-04-25T07:16:30;55.856148;51.190453;62.694809;;
79288;Laerm;68737;53.946;27.634;2023-04-25T07:19:00;55.673210;49.576958;69.224846;;
79288;Laerm;68737;53.946;27.634;2023-04-25T07:21:30;57.157623;50.054550;66.999146;;
79288;Laerm;68737;53.946;27.634;2023-04-25T07:24:00;54.304939;49.107689;63.550865;;
79288;Laerm;68737;53.946;27.634;2023-04-25T07:26:30;56.330353;50.394226;66.903267;;
79288;Laerm;68737;53.946;27.634;2023-04-25T07:29:00;56.436470;49.740593;66.700470;;
79288;Laerm;68737;53.946;27.634;2023-04-25T07:31:30;56.354805;50.655617;76.735619;;
79288;Laerm;68737;53.946;27.634;2023-04-25T07:34:00;54.986366;50.335136;63.612289;;
79288;Laerm;68737;53.946;27.634;2023-04-25T07:36:30;56.339981;49.788605;66.335991;;
79288;Laerm;68737;53.946;27.634;2023-04-25T07:39:00;55.993279;49.261139;66.074814;;
79288;Laerm;68737;53.946;27.634;2023-04-25T07:41:30;56.059586;50.353226;70.605408;;
79288;Laerm;68737;53.946;27.634;2023-04-25T07:44:00;55.374687;49.018776;66.755295;;
79288;Laerm;68737;53.946;27.634;2023-04-25T07:46:30;56.885704;50.611130;66.133698;;
79288;Laerm;68737;53.946;27.634;2023-04-25T07:49:00;53.940094;48.895378;70.216599;;
79288;Laerm;68737;53.946;27.634;2023-04-25T07:51:30;56.385582;50.345375;69.424805;;
79288;Laerm;68737;53.946;27.634;2023-04-25T07:54:00;57.837746;50.796722;77.208076;;
79288;Laerm;68737;53.946;27.634;2023-04-25T07:56:30;60.702950;51.843643;79.948624;;
79288;Laerm;68737;53.946;27.634;2023-04-25T07:59:00;59.077644;51.624123;81.458298;;
79288;Laerm;68737;53.946;27.634;2023-04-25T08:01:30;57.811203;52.246849;77.669144;;
79288;Laerm;68737;53.946;27.634;2023-04-25T08:04:00;58.820435;51.556000;82.857162;;
79288;Laerm;68737;53.946;27.634;2023-04-25T08:06:30;61.985661;52.035355;91.151917;;
79288;Laerm;68737;53.946;27.634;2023-04-25T08:09:00;59.521126;51.911011;81.014664;;
79288;Laerm;68737;53.946;27.634;2023-04-25T08:11:30;58.859879;51.671211;84.523239;;
79288;Laerm;68737;53.946;27.634;2023-04-25T08:14:00;58.353790;52.293762;81.492996;;
79288;Laerm;68737;53.946;27.634;2023-04-25T08:16:30;59.057484;52.048599;85.226898;;
79288;Laerm;68737;53.946;27.634;2023-04-25T08:19:00;58.121689;51.525833;79.917679;;
79288;Laerm;68737;53.946;27.634;2023-04-25T08:21:30;59.473328;51.426872;84.827141;;
79288;Laerm;68737;53.946;27.634;2023-04-25T08:24:00;58.495201;51.230598;82.942017;;
79288;Laerm;68737;53.946;27.634;2023-04-25T08:26:30;57.748970;51.142868;77.329651;;
79288;Laerm;68737;53.946;27.634;2023-04-25T08:29:00;57.707954;52.501541;71.673195;;
79288;Laerm;68737;53.946;27.634;2023-04-25T08:31:30;57.152443;50.881180;79.229546;;
79288;Laerm;68737;53.946;27.634;2023-04-25T08:34:00;56.894592;50.699768;65.377090;;
79288;Laerm;68737;53.946;27.634;2023-04-25T08:36:30;57.285179;51.307037;73.470947;;
79288;Laerm;68737;53.946;27.634;2023-04-25T08:39:00;55.544167;50.579285;64.263412;;
79288;Laerm;68737;53.946;27.634;2023-04-25T08:41:30;56.910065;51.049881;64.284149;;
79288;Laerm;68737;53.946;27.634;2023-04-25T08:44:00;55.093575;50.082825;63.477100;;
79288;Laerm;68737;53.946;27.634;2023-04-25T08:46:30;55.979088;50.399353;63.359047;;
79288;Laerm;68737;53.946;27.634;2023-04-25T08:49:00;54.744156;49.981133;60.953022;;
79288;Laerm;68737;53.946;27.634;2023-04-25T08:51:36;56.409569;50.733421;66.142914;;
79288;Laerm;68737;53.946;27.634;2023-04-25T08:54:05;55.603348;49.703751;62.960186;;
79288;Laerm;68737;53.946;27.634;2023-04-25T08:56:30;56.095642;49.317245;65.846527;;
79288;Laerm;68737;53.946;27.634;2023-04-25T08:59:00;55.071312;48.456474;62.378963;;
79288;Laerm;68737;53.946;27.634;2023-04-25T09:01:30;56.092384;48.908066;69.721512;;
79288;Laerm;68737;53.946;27.634;2023-04-25T09:04:00;56.167442;48.953049;67.056183;;
79288;Laerm;68737;53.946;27.634;2023-04-25T09:06:30;55.012260;49.361816;61.778610;;
79288;Laerm;68737;53.946;27.634;2023-04-25T09:11:30;55.757797;49.440651;64.543915;;
79288;Laerm;68737;53.946;27.634;2023-04-25T09:16:30;55.882439;48.296944;63.612373;;
79288;Laerm;68737;53.946;27.634;2023-04-25T09:19:00;55.323647;48.720673;64.105995;;
79288;Laerm;68737;53.946;27.634;2023-04-25T09:21:30;55.226707;48.743858;62.521511;;
79288;Laerm;68737;53.946;27.634;2023-04-25T09:24:00;54.323059;48.486610;60.371346;;
79288;Laerm;68737;53.946;27.634;2023-04-25T09:26:31;54.763000;47.529404;71.182381;;
79288;Laerm;68737;53.946;27.634;2023-04-25T09:31:30;56.412827;49.723587;72.642456;;
79288;Laerm;68737;53.946;27.634;2023-04-25T09:34:00;53.781921;47.822762;61.589832;;
79288;Laerm;68737;53.946;27.634;2023-04-25T09:36:30;54.221008;46.386047;64.253433;;
79288;Laerm;68737;53.946;27.634;2023-04-25T09:39:00;55.479965;47.801193;65.440857;;
79288;Laerm;68737;53.946;27.634;2023-04-25T09:41:30;52.739693;46.922821;64.773453;;
79288;Laerm;68737;53.946;27.634;2023-04-25T09:44:00;51.927757;46.550934;65.877106;;
79288;Laerm;68737;53.946;27.634;2023-04-25T09:49:05;54.673759;47.975555;62.227402;;
79288;Laerm;68737;53.946;27.634;2023-04-25T09:51:30;55.829254;46.413261;73.983780;;
79288;Laerm;68737;53.946;27.634;2023-04-25T09:54:00;54.312309;47.680779;64.726524;;
79288;Laerm;68737;53.946;27.634;2023-04-25T09:56:30;55.336426;46.314476;69.932816;;
79288;Laerm;68737;53.946;27.634;2023-04-25T09:59:00;53.084915;46.940125;64.018097;;
79288;Laerm;68737;53.946;27.634;2023-04-25T10:01:30;55.162315;46.770340;64.280609;;
79288;Laerm;68737;53.946;27.634;2023-04-25T10:04:00;54.682671;46.750336;65.851753;;
79288;Laerm;68737;53.946;27.634;2023-04-25T10:06:30;53.393875;45.708481;61.490387;;
79288;Laerm;68737;53.946;27.634;2023-04-25T10:09:00;54.434731;45.315178;63.545353;;
79288;Laerm;68737;53.946;27.634;2023-04-25T10:11:30;54.109543;46.043404;64.344086;;
79288;Laerm;68737;53.946;27.634;2023-04-25T10:14:00;53.494324;46.435913;65.055679;;
79288;Laerm;68737;53.946;27.634;2023-04-25T10:16:30;54.460991;45.841850;68.238655;;
79288;Laerm;68737;53.946;27.634;2023-04-25T10:19:00;55.081520;45.250755;70.129700;;
79288;Laerm;68737;53.946;27.634;2023-04-25T10:21:30;54.382713;46.580582;62.150875;;
79288;Laerm;68737;53.946;27.634;2023-04-25T10:24:00;53.962296;45.465706;64.740395;;
79288;Laerm;68737;53.946;27.634;2023-04-25T10:26:30;53.294563;46.042534;64.320297;;
79288;Laerm;68737;53.946;27.634;2023-04-25T10:29:01;53.842041;47.054855;60.582031;;
79288;Laerm;68737;53.946;27.634;2023-04-25T10:31:30;53.902702;47.079567;72.387451;;
79288;Laerm;68737;53.946;27.634;2023-04-25T10:34:00;54.357010;46.333855;63.389194;;
79288;Laerm;68737;53.946;27.634;2023-04-25T10:39:03;60.075024;46.360657;84.420670;;
79288;Laerm;68737;53.946;27.634;2023-04-25T10:41:30;54.575714;44.908020;70.478210;;
79288;Laerm;68737;53.946;27.634;2023-04-25T10:44:00;54.344261;45.181145;68.075165;;
79288;Laerm;68737;53.946;27.634;2023-04-25T10:46:30;55.213989;46.113213;64.354568;;
79288;Laerm;68737;53.946;27.634;2023-04-25T10:49:01;53.436630;46.252029;66.777679;;
79288;Laerm;68737;53.946;27.634;2023-04-25T11:01:35;54.111320;47.070450;67.992950;;
79288;Laerm;68737;53.946;27.634;2023-04-25T11:04:00;53.819839;45.790932;67.665512;;
79288;Laerm;68737;53.946;27.634;2023-04-25T11:09:00;53.089592;44.801750;67.481773;;
79288;Laerm;68737;53.946;27.634;2023-04-25T11:11:30;53.969482;44.171913;79.067184;;
79288;Laerm;68737;53.946;27.634;2023-04-25T11:14:00;56.619957;48.580055;75.741661;;
79288;Laerm;68737;53.946;27.634;2023-04-25T11:16:30;53.160713;46.646240;61.382919;;
79288;Laerm;68737;53.946;27.634;2023-04-25T11:19:00;51.953667;45.527565;60.985744;;
79288;Laerm;68737;53.946;27.634;2023-04-25T11:21:30;52.753281;44.382767;63.269596;;
79288;Laerm;68737;53.946;27.634;2023-04-25T11:24:00;53.721779;46.410065;62.044548;;
79288;Laerm;68737;53.946;27.634;2023-04-25T11:26:30;52.290016;44.873032;60.559742;;
79288;Laerm;68737;53.946;27.634;2023-04-25T11:29:00;52.238426;45.134399;62.883984;;
79288;Laerm;68737;53.946;27.634;2023-04-25T11:31:30;53.716209;45.098938;64.571579;;
79288;Laerm;68737;53.946;27.634;2023-04-25T11:34:00;52.408775;44.428772;60.643173;;
79288;Laerm;68737;53.946;27.634;2023-04-25T11:36:30;54.248802;46.456329;68.084396;;
79288;Laerm;68737;53.946;27.634;2023-04-25T11:39:00;53.190269;45.611000;66.203888;;
79288;Laerm;68737;53.946;27.634;2023-04-25T11:41:30;54.088730;47.812454;67.235130;;
79288;Laerm;68737;53.946;27.634;2023-04-25T11:44:00;65.851852;48.507530;84.288963;;
79288;Laerm;68737;53.946;27.634;2023-04-25T11:46:30;68.793701;55.329399;91.660698;;
79288;Laerm;68737;53.946;27.634;2023-04-25T11:49:00;74.861649;55.520798;90.713676;;
79288;Laerm;68737;53.946;27.634;2023-04-25T11:51:30;68.103256;51.985779;98.950958;;
79288;Laerm;68737;53.946;27.634;2023-04-25T11:54:00;61.090706;50.425446;84.816956;;
79288;Laerm;68737;53.946;27.634;2023-04-25T11:56:30;60.533310;51.004623;78.023323;;
79288;Laerm;68737;53.946;27.634;2023-04-25T11:59:00;64.745697;50.333710;83.751923;;
79288;Laerm;68737;53.946;27.634;2023-04-25T12:01:30;63.332829;52.234741;86.534065;;
79288;Laerm;68737;53.946;27.634;2023-04-25T12:06:30;67.558594;56.333824;93.806366;;
79288;Laerm;68737;53.946;27.634;2023-04-25T12:11:30;64.116844;52.196564;82.323395;;
79288;Laerm;68737;53.946;27.634;2023-04-25T12:16:30;60.933804;50.949631;80.619049;;
79288;Laerm;68737;53.946;27.634;2023-04-25T12:18:59;61.880882;52.404549;78.413742;;
79288;Laerm;68737;53.946;27.634;2023-04-25T12:21:29;59.932522;51.800453;80.093666;;